createdAt,value
2023-03-14T00:02:55.454Z,31.35
2023-03-14T00:06:55.421Z,29.98
2023-03-14T00:10:55.622Z,29.52
2023-03-14T00:14:55.845Z,30.43
2023-03-14T00:18:56.033Z,29.03
2023-03-14T00:22:56.207Z,29.32
2023-03-14T00:26:56.392Z,31.72
2023-03-14T00:30:56.661Z,32.31
2023-03-14T00:34:56.764Z,26.31
2023-03-14T00:38:57.114Z,32.98
2023-03-14T00:42:57.204Z,31.37
2023-03-14T00:46:57.432Z,33.07
2023-03-14T00:50:57.566Z,31.68
2023-03-14T00:54:57.745Z,32.64
2023-03-14T00:58:57.939Z,33.51
2023-03-14T01:02:58.256Z,27.25
2023-03-14T01:06:58.337Z,35.58
2023-03-14T01:10:58.471Z,30.16
2023-03-14T01:14:58.653Z,27.54
2023-03-14T01:18:58.834Z,28.99
2023-03-14T01:22:59.063Z,29.28
2023-03-14T01:26:59.215Z,27.91
2023-03-14T01:30:59.417Z,29.45
2023-03-14T01:34:59.632Z,28.33
2023-03-14T01:38:59.797Z,28.33
2023-03-14T01:43:00.215Z,29.09
2023-03-14T01:47:00.247Z,27.02
2023-03-14T01:51:00.418Z,26.27
2023-03-14T01:55:00.655Z,28.46
2023-03-14T01:59:00.901Z,33.72
2023-03-14T02:03:01.075Z,29.28
2023-03-14T02:07:01.288Z,28.00
2023-03-14T02:11:01.478Z,30.53
2023-03-14T02:15:01.454Z,31.90
2023-03-14T02:19:01.387Z,29.42
2023-03-14T02:23:01.324Z,26.96
2023-03-14T02:27:01.324Z,27.32
2023-03-14T02:31:01.283Z,27.11
2023-03-14T02:35:01.264Z,29.93
2023-03-14T02:39:01.190Z,33.40
2023-03-14T02:43:01.167Z,32.45
2023-03-14T02:47:01.145Z,33.67
2023-03-14T02:51:01.148Z,31.22
2023-03-14T02:55:01.049Z,25.71
2023-03-14T02:59:01.043Z,32.27
2023-03-14T03:03:01.014Z,35.85
2023-03-14T03:07:00.957Z,31.76
2023-03-14T03:11:00.910Z,38.47
2023-03-14T03:15:00.871Z,36.59
2023-03-14T03:19:00.842Z,32.43
2023-03-14T03:23:00.800Z,30.45
2023-03-14T03:27:00.751Z,34.45
2023-03-14T03:31:00.831Z,27.93
2023-03-14T03:35:00.693Z,33.18
2023-03-14T03:39:00.673Z,27.56
2023-03-14T03:43:00.789Z,28.21
2023-03-14T03:47:01.057Z,25.00
2023-03-14T03:51:01.169Z,37.35
2023-03-14T03:55:01.313Z,25.95
2023-03-14T03:59:01.488Z,29.01
2023-03-14T04:03:01.584Z,28.98
2023-03-14T04:07:01.729Z,37.60
2023-03-14T04:11:01.875Z,34.46
2023-03-14T04:15:02.086Z,37.48
2023-03-14T04:19:02.240Z,39.86
2023-03-14T04:23:02.414Z,30.49
2023-03-14T04:27:02.522Z,25.35
2023-03-14T04:31:02.648Z,29.03
2023-03-14T04:35:02.778Z,38.27
2023-03-14T04:39:02.951Z,35.28
2023-03-14T04:43:03.022Z,30.52
2023-03-14T04:47:03.278Z,43.54
2023-03-14T04:51:03.254Z,55.99
2023-03-14T04:55:03.362Z,63.26
2023-03-14T04:59:03.492Z,65.83
2023-03-14T05:03:03.640Z,67.79
2023-03-14T05:07:03.662Z,72.87
2023-03-14T05:11:03.766Z,75.93
2023-03-14T05:15:03.887Z,78.73
2023-03-14T05:19:04.055Z,76.64
2023-03-14T05:23:04.217Z,78.97
2023-03-14T05:27:04.425Z,76.90
2023-03-14T05:31:04.594Z,77.61
2023-03-14T05:35:04.743Z,79.49
2023-03-14T05:39:04.924Z,81.82
2023-03-14T05:43:05.187Z,85.68
2023-03-14T05:47:05.265Z,82.06
2023-03-14T05:51:05.386Z,84.03
2023-03-14T05:55:05.591Z,80.06
2023-03-14T05:59:05.719Z,82.54
2023-03-14T06:03:07.600Z,81.38
2023-03-14T06:07:06.102Z,83.97
2023-03-14T06:11:06.266Z,84.70
2023-03-14T06:15:06.395Z,84.78
2023-03-14T06:19:06.603Z,80.65
2023-03-14T06:23:06.790Z,79.30
2023-03-14T06:27:06.906Z,76.52
2023-03-14T06:31:07.186Z,77.90
2023-03-14T06:35:07.148Z,34.49
2023-03-14T06:39:07.506Z,13.86
2023-03-14T06:43:07.362Z,80.52
2023-03-14T06:47:07.497Z,148.86
2023-03-14T06:51:07.564Z,230.20
2023-03-14T06:55:07.180Z,250.21
2023-03-14T06:59:07.525Z,250.00
2023-03-14T07:03:07.494Z,250.00
2023-03-14T07:07:07.528Z,250.00
2023-03-14T07:11:07.042Z,249.48
2023-03-14T07:15:17.464Z,249.18
2023-03-14T07:19:07.960Z,253.55
2023-03-14T07:23:06.933Z,250.00
2023-03-14T07:27:07.742Z,249.60
2023-03-14T07:31:06.979Z,249.84
2023-03-14T07:35:07.080Z,249.83
2023-03-14T07:39:06.835Z,247.72
2023-03-14T07:43:06.790Z,250.22
2023-03-14T07:47:06.792Z,248.30
2023-03-14T07:51:07.040Z,250.15
2023-03-14T07:55:07.039Z,240.68
2023-03-14T07:59:06.651Z,242.76
2023-03-14T08:03:06.663Z,143.72
2023-03-14T08:07:06.561Z,191.36
2023-03-14T08:11:06.544Z,201.30
2023-03-14T08:15:06.488Z,205.17
2023-03-14T08:19:06.428Z,211.97
2023-03-14T08:23:06.402Z,217.13
2023-03-14T08:27:08.011Z,232.01
2023-03-14T08:31:06.405Z,235.79
2023-03-14T08:35:06.315Z,236.07
2023-03-14T08:39:06.353Z,242.03
2023-03-14T08:43:06.247Z,264.99
2023-03-14T08:47:06.579Z,237.72
2023-03-14T08:51:06.175Z,234.73
2023-03-14T08:55:06.546Z,236.66
2023-03-14T08:59:06.085Z,238.72
2023-03-14T09:03:06.162Z,239.29
2023-03-14T09:07:06.133Z,241.11
2023-03-14T09:11:06.276Z,245.31
2023-03-14T09:15:06.595Z,247.38
2023-03-14T09:19:06.629Z,248.54
2023-03-14T09:23:06.851Z,249.42
2023-03-14T09:27:07.036Z,249.01
2023-03-14T09:31:07.113Z,249.56
2023-03-14T09:35:07.253Z,249.27
2023-03-14T09:39:07.590Z,231.16
2023-03-14T09:43:07.604Z,235.35
2023-03-14T09:47:08.098Z,236.00
2023-03-14T09:51:08.068Z,231.75
2023-03-14T09:55:07.851Z,172.53
2023-03-14T09:59:07.794Z,183.57
2023-03-14T10:03:08.094Z,191.74
2023-03-14T10:07:07.716Z,197.87
2023-03-14T10:11:07.644Z,203.43
2023-03-14T10:15:07.654Z,217.98
2023-03-14T10:19:07.625Z,221.50
2023-03-14T10:23:07.544Z,213.67
2023-03-14T10:27:07.524Z,207.40
2023-03-14T10:31:07.538Z,213.48
2023-03-14T10:35:07.629Z,220.78
2023-03-14T10:39:07.395Z,220.64
2023-03-14T10:43:07.629Z,229.21
2023-03-14T10:47:07.351Z,155.75
2023-03-14T10:51:07.596Z,120.25
2023-03-14T10:55:07.616Z,98.07
2023-03-14T10:59:08.147Z,93.28
2023-03-14T11:03:07.855Z,92.02
2023-03-14T11:07:07.900Z,81.40
2023-03-14T11:11:08.025Z,73.95
2023-03-14T11:15:08.171Z,87.01
2023-03-14T11:19:08.219Z,92.65
2023-03-14T11:23:08.215Z,102.73
2023-03-14T11:27:08.431Z,110.35
2023-03-14T11:31:08.369Z,116.46
2023-03-14T11:35:08.830Z,123.58
2023-03-14T11:39:08.321Z,134.66
2023-03-14T11:43:08.951Z,140.78
2023-03-14T11:47:09.144Z,152.65
2023-03-14T11:51:08.209Z,158.61
2023-03-14T11:55:08.152Z,166.46
2023-03-14T11:59:08.100Z,173.29
2023-03-14T12:03:08.076Z,181.42
2023-03-14T12:07:08.051Z,112.19
2023-03-14T12:11:07.994Z,112.78
2023-03-14T12:15:07.979Z,123.47
2023-03-14T12:19:08.143Z,137.04
2023-03-14T12:23:08.281Z,146.33
2023-03-14T12:27:08.403Z,157.85
2023-03-14T12:31:08.635Z,160.76
2023-03-14T12:35:08.694Z,163.91
2023-03-14T12:39:09.163Z,163.42
2023-03-14T12:43:08.848Z,166.54
2023-03-14T12:47:08.992Z,167.24
2023-03-14T12:51:09.166Z,169.98
2023-03-14T12:55:09.748Z,171.00
2023-03-14T12:59:09.318Z,172.61
2023-03-14T13:03:09.465Z,173.24
2023-03-14T13:07:09.678Z,175.75
2023-03-14T13:11:09.692Z,175.25
2023-03-14T13:15:11.282Z,172.82
2023-03-14T13:19:10.008Z,172.02
2023-03-14T13:23:10.141Z,171.81
2023-03-14T13:27:10.657Z,169.54
2023-03-14T13:31:10.765Z,168.77
2023-03-14T13:35:10.690Z,167.16
2023-03-14T13:39:10.852Z,165.34
2023-03-14T13:43:11.230Z,162.93
2023-03-14T13:47:11.284Z,161.73
2023-03-14T13:51:11.506Z,161.03
2023-03-14T13:55:11.484Z,160.20
2023-03-14T13:59:11.403Z,160.18
2023-03-14T14:03:11.683Z,157.54
2023-03-14T14:07:11.357Z,156.42
2023-03-14T14:11:11.667Z,156.33
2023-03-14T14:15:11.269Z,156.30
2023-03-14T14:19:11.673Z,154.11
2023-03-14T14:23:11.210Z,152.55
2023-03-14T14:27:11.246Z,151.03
2023-03-14T14:31:11.228Z,150.65
2023-03-14T14:35:11.384Z,149.15
2023-03-14T14:39:11.571Z,146.65
2023-03-14T14:43:11.724Z,147.35
2023-03-14T14:47:11.761Z,146.71
2023-03-14T14:51:11.835Z,146.29
2023-03-14T14:55:12.196Z,146.82
2023-03-14T14:59:12.015Z,145.07
2023-03-14T15:03:12.106Z,144.28
2023-03-14T15:07:12.027Z,144.89
2023-03-14T15:11:12.046Z,142.12
2023-03-14T15:15:12.302Z,142.03
2023-03-14T15:19:23.463Z,141.57
2023-03-14T15:23:12.899Z,142.34
2023-03-14T15:27:11.853Z,142.19
2023-03-14T15:31:11.876Z,140.12
2023-03-14T15:35:11.837Z,140.08
2023-03-14T15:39:11.755Z,139.52
2023-03-14T15:43:11.742Z,138.65
2023-03-14T15:47:11.700Z,136.92
2023-03-14T15:51:11.695Z,137.21
2023-03-14T15:55:11.585Z,137.73
2023-03-14T15:59:11.563Z,135.09
2023-03-14T16:03:11.531Z,136.31
2023-03-14T16:07:11.523Z,135.51
2023-03-14T16:11:11.452Z,135.37
2023-03-14T16:15:11.480Z,135.07
2023-03-14T16:19:11.378Z,133.17
2023-03-14T16:23:11.345Z,131.32
2023-03-14T16:27:11.331Z,133.42
2023-03-14T16:31:11.276Z,131.91
2023-03-14T16:35:11.241Z,130.30
2023-03-14T16:39:11.219Z,130.89
2023-03-14T16:43:16.066Z,130.96
2023-03-14T16:47:12.209Z,129.85
2023-03-14T16:51:11.090Z,129.07
2023-03-14T16:55:11.017Z,128.53
2023-03-14T16:59:11.011Z,127.74
2023-03-14T17:03:10.974Z,128.30
2023-03-14T17:07:10.949Z,129.40
2023-03-14T17:11:10.907Z,126.95
2023-03-14T17:15:10.925Z,127.89
2023-03-14T17:19:10.951Z,126.60
2023-03-14T17:23:10.805Z,125.53
2023-03-14T17:27:10.750Z,126.99
2023-03-14T17:31:10.887Z,126.80
2023-03-14T17:35:10.709Z,127.62
2023-03-14T17:39:10.692Z,128.12
2023-03-14T17:43:11.233Z,127.61
2023-03-14T17:47:10.576Z,124.64
2023-03-14T17:51:10.574Z,123.83
2023-03-14T17:55:10.530Z,123.26
2023-03-14T17:59:10.577Z,122.52
2023-03-14T18:03:10.688Z,121.04
2023-03-14T18:07:10.756Z,119.74
2023-03-14T18:11:10.841Z,117.61
2023-03-14T18:15:10.938Z,119.90
2023-03-14T18:19:10.940Z,117.18
2023-03-14T18:23:11.017Z,117.03
2023-03-14T18:27:11.121Z,114.38
2023-03-14T18:31:11.437Z,115.45
2023-03-14T18:35:11.299Z,116.35
2023-03-14T18:39:11.335Z,115.99
2023-03-14T18:43:11.443Z,113.20
2023-03-14T18:47:11.595Z,112.86
2023-03-14T18:51:11.569Z,113.10
2023-03-14T18:55:11.646Z,111.80
2023-03-14T18:59:11.740Z,110.84
2023-03-14T19:03:11.832Z,111.73
2023-03-14T19:07:11.882Z,110.28
2023-03-14T19:11:11.941Z,110.07
2023-03-14T19:15:12.070Z,109.02
2023-03-14T19:19:12.076Z,109.70
2023-03-14T19:23:12.149Z,109.16
2023-03-14T19:27:12.281Z,109.00
2023-03-14T19:31:12.435Z,107.57
2023-03-14T19:35:12.463Z,106.36
2023-03-14T19:39:12.558Z,105.96
2023-03-14T19:43:12.663Z,106.26
2023-03-14T19:47:12.688Z,105.92
2023-03-14T19:51:12.814Z,103.04
2023-03-14T19:55:12.894Z,103.88
2023-03-14T19:59:12.987Z,103.87
2023-03-14T20:03:13.134Z,103.33
2023-03-14T20:07:13.221Z,102.37
2023-03-14T20:11:13.390Z,101.92
2023-03-14T20:15:13.454Z,101.46
2023-03-14T20:19:13.620Z,102.70
2023-03-14T20:23:13.808Z,100.24
2023-03-14T20:27:13.863Z,98.99
2023-03-14T20:31:13.998Z,100.23
2023-03-14T20:35:14.143Z,100.53
2023-03-14T20:39:14.317Z,98.99
2023-03-14T20:43:14.376Z,99.31
2023-03-14T20:47:14.498Z,96.32
2023-03-14T20:51:14.660Z,98.75
2023-03-14T20:55:14.801Z,97.28
2023-03-14T20:59:14.945Z,96.65
2023-03-14T21:03:15.352Z,94.55
2023-03-14T21:07:15.213Z,97.08
2023-03-14T21:11:15.426Z,94.84
2023-03-14T21:15:15.439Z,94.60
2023-03-14T21:19:15.583Z,92.83
2023-03-14T21:23:17.899Z,92.97
2023-03-14T21:27:15.729Z,93.37
2023-03-14T21:31:15.943Z,92.25
2023-03-14T21:35:15.636Z,92.00
2023-03-14T21:39:15.621Z,92.56
2023-03-14T21:43:15.598Z,90.90
2023-03-14T21:47:15.557Z,89.35
2023-03-14T21:51:15.476Z,89.19
2023-03-14T21:55:15.444Z,90.00
2023-03-14T21:59:15.430Z,90.61
2023-03-14T22:03:15.426Z,88.84
2023-03-14T22:07:17.339Z,87.73
2023-03-14T22:11:15.309Z,89.48
2023-03-14T22:15:15.279Z,87.69
2023-03-14T22:19:15.200Z,84.61
2023-03-14T22:23:15.181Z,86.45
2023-03-14T22:27:15.127Z,84.51
2023-03-14T22:31:15.187Z,83.74
2023-03-14T22:35:15.091Z,83.37
2023-03-14T22:39:15.040Z,82.81
2023-03-14T22:43:14.960Z,82.37
2023-03-14T22:47:14.984Z,80.32
2023-03-14T22:51:14.908Z,79.94
2023-03-14T22:55:14.906Z,80.34
2023-03-14T22:59:15.204Z,80.75
2023-03-14T23:03:14.972Z,80.38
2023-03-14T23:07:15.106Z,79.93
2023-03-14T23:11:15.224Z,79.18
2023-03-14T23:15:15.365Z,80.22
2023-03-14T23:19:15.521Z,79.13
2023-03-14T23:23:15.727Z,77.71
2023-03-14T23:27:15.852Z,78.38
2023-03-14T23:31:16.147Z,75.72
2023-03-14T23:35:16.199Z,78.46
2023-03-14T23:39:16.352Z,75.37
2023-03-14T23:43:16.545Z,76.62
2023-03-14T23:47:16.698Z,75.01
2023-03-14T23:51:16.899Z,74.22
2023-03-14T23:55:17.115Z,74.05
2023-03-14T23:59:17.259Z,75.16
